createdAt,value
2023-03-28T00:01:06.154Z,1.64
2023-03-28T00:03:39.679Z,1.63
2023-03-28T00:06:18.920Z,1.62
2023-03-28T00:08:47.715Z,1.57
2023-03-28T00:11:22.473Z,1.52
2023-03-28T00:14:01.101Z,1.54
2023-03-28T00:16:37.804Z,1.39
2023-03-28T00:19:11.895Z,1.43
2023-03-28T00:21:43.145Z,1.54
2023-03-28T00:24:14.174Z,1.52
2023-03-28T00:26:43.260Z,1.64
2023-03-28T00:29:16.191Z,1.67
2023-03-28T00:31:43.118Z,1.62
2023-03-28T00:34:10.086Z,1.56
2023-03-28T00:36:39.171Z,1.46
2023-03-28T00:39:10.509Z,1.55
2023-03-28T00:41:42.553Z,1.55
2023-03-28T00:44:46.809Z,1.50
2023-03-28T00:47:28.471Z,1.47
2023-03-28T00:50:05.766Z,1.39
2023-03-28T00:52:40.619Z,1.42
2023-03-28T00:55:17.719Z,1.34
2023-03-28T00:57:46.946Z,1.44
2023-03-28T01:00:19.084Z,1.31
2023-03-28T01:02:52.636Z,1.29
2023-03-28T01:05:33.018Z,1.27
2023-03-28T01:08:08.976Z,1.25
2023-03-28T01:10:36.294Z,1.24
2023-03-28T01:13:03.870Z,1.19
2023-03-28T01:15:32.762Z,1.24
2023-03-28T01:18:03.081Z,1.18
2023-03-28T01:20:59.060Z,1.22
2023-03-28T01:24:16.092Z,1.18
2023-03-28T01:27:10.863Z,1.27
2023-03-28T01:30:08.216Z,1.10
2023-03-28T01:33:04.755Z,1.05
2023-03-28T01:35:55.905Z,0.97
2023-03-28T01:38:37.414Z,1.01
2023-03-28T01:41:35.614Z,0.89
2023-03-28T01:44:26.523Z,0.97
2023-03-28T01:47:08.396Z,0.91
2023-03-28T01:50:03.752Z,0.86
2023-03-28T01:53:06.550Z,0.92
2023-03-28T01:55:45.397Z,0.85
2023-03-28T01:58:21.686Z,0.88
2023-03-28T02:01:13.909Z,0.77
2023-03-28T02:03:48.035Z,0.69
2023-03-28T02:06:15.481Z,0.66
2023-03-28T02:08:45.471Z,0.69
2023-03-28T02:11:12.527Z,0.64
2023-03-28T02:13:46.259Z,0.63
2023-03-28T02:16:14.390Z,0.55
2023-03-28T02:18:47.293Z,0.48
2023-03-28T02:21:21.232Z,0.59
2023-03-28T02:23:52.815Z,0.46
2023-03-28T02:26:21.896Z,0.44
2023-03-28T02:28:54.200Z,0.41
2023-03-28T02:31:22.542Z,0.31
2023-03-28T02:33:51.383Z,0.36
2023-03-28T02:36:47.246Z,0.32
2023-03-28T02:39:46.866Z,0.26
2023-03-28T02:42:24.834Z,0.21
2023-03-28T02:44:57.560Z,0.26
2023-03-28T02:47:37.087Z,0.26
2023-03-28T02:50:35.936Z,0.19
2023-03-28T02:53:22.403Z,0.22
2023-03-28T02:56:02.248Z,0.14
2023-03-28T02:58:38.768Z,0.16
2023-03-28T03:01:07.208Z,0.18
2023-03-28T03:03:37.650Z,0.22
2023-03-28T03:06:05.793Z,0.23
2023-03-28T03:08:33.327Z,0.26
2023-03-28T03:11:00.505Z,0.39
2023-03-28T03:13:27.444Z,0.28
2023-03-28T03:15:54.748Z,0.23
2023-03-28T03:18:21.950Z,0.25
2023-03-28T03:20:50.482Z,0.31
2023-03-28T03:23:17.788Z,0.37
2023-03-28T03:25:45.428Z,0.37
2023-03-28T03:28:16.473Z,0.39
2023-03-28T03:30:43.699Z,0.39
2023-03-28T03:33:11.556Z,0.33
2023-03-28T03:35:46.078Z,0.34
2023-03-28T03:38:13.861Z,0.34
2023-03-28T03:40:41.268Z,0.26
2023-03-28T03:43:08.129Z,0.10
2023-03-28T03:45:53.908Z,0.36
2023-03-28T03:48:20.748Z,0.36
2023-03-28T03:50:47.688Z,0.33
2023-03-28T03:53:14.545Z,0.19
2023-03-28T03:55:41.492Z,0.44
2023-03-28T03:58:08.460Z,0.28
2023-03-28T04:00:37.792Z,-0.02
2023-03-28T04:03:04.865Z,0.10
2023-03-28T04:05:31.792Z,0.30
2023-03-28T04:08:00.594Z,0.14
2023-03-28T04:10:27.493Z,0.22
2023-03-28T04:12:54.346Z,0.23
2023-03-28T04:15:21.178Z,0.22
2023-03-28T04:17:50.577Z,0.14
2023-03-28T04:20:17.680Z,0.28
2023-03-28T04:22:46.368Z,0.26
2023-03-28T04:25:14.289Z,0.00
2023-03-28T04:27:46.498Z,0.13
2023-03-28T04:30:18.267Z,0.17
2023-03-28T04:32:49.728Z,0.23
2023-03-28T04:35:17.059Z,0.14
2023-03-28T04:37:44.037Z,-0.11
2023-03-28T04:40:16.120Z,0.14
2023-03-28T04:42:43.918Z,0.03
2023-03-28T04:45:11.342Z,0.03
2023-03-28T04:47:40.253Z,0.07
2023-03-28T04:50:09.946Z,0.26
2023-03-28T04:52:37.173Z,0.15
2023-03-28T04:55:05.374Z,0.05
2023-03-28T04:57:32.422Z,0.28
2023-03-28T04:59:59.307Z,0.24
2023-03-28T05:02:26.438Z,0.19
2023-03-28T05:04:53.658Z,0.16
2023-03-28T05:07:20.704Z,0.17
2023-03-28T05:09:48.084Z,-0.09
2023-03-28T05:12:14.959Z,-0.09
2023-03-28T05:14:42.146Z,-0.09
2023-03-28T05:17:08.967Z,-0.07
2023-03-28T05:19:35.983Z,-0.12
2023-03-28T05:22:02.899Z,-0.12
2023-03-28T05:24:29.839Z,0.02
2023-03-28T05:26:56.947Z,0.06
2023-03-28T05:29:24.022Z,-0.14
2023-03-28T05:31:51.031Z,0.02
2023-03-28T05:34:17.938Z,0.03
2023-03-28T05:36:44.825Z,-0.04
2023-03-28T05:39:12.015Z,-0.10
2023-03-28T05:41:38.857Z,-0.14
2023-03-28T05:44:05.822Z,-0.07
2023-03-28T05:46:32.740Z,-0.04
2023-03-28T05:48:59.624Z,0.04
2023-03-28T05:51:26.504Z,-0.13
2023-03-28T05:53:53.389Z,-0.37
2023-03-28T05:56:20.313Z,-0.30
2023-03-28T05:58:48.535Z,-0.45
2023-03-28T06:01:18.650Z,-0.30
2023-03-28T06:03:46.076Z,-0.42
2023-03-28T06:06:13.746Z,-0.38
2023-03-28T06:08:40.887Z,-0.35
2023-03-28T06:11:08.276Z,-0.28
2023-03-28T06:13:35.200Z,-0.31
2023-03-28T06:16:02.145Z,-0.35
2023-03-28T06:18:29.110Z,-0.55
2023-03-28T06:20:56.209Z,-0.47
2023-03-28T06:23:23.394Z,-0.32
2023-03-28T06:25:50.512Z,-0.36
2023-03-28T06:28:17.455Z,-0.57
2023-03-28T06:30:49.402Z,-0.53
2023-03-28T06:33:16.887Z,-0.43
2023-03-28T06:35:43.859Z,-0.44
2023-03-28T06:38:11.017Z,-0.46
2023-03-28T06:40:37.937Z,-0.39
2023-03-28T06:43:04.772Z,-0.54
2023-03-28T06:45:31.648Z,-0.51
2023-03-28T06:47:58.560Z,-0.58
2023-03-28T06:50:25.528Z,-0.47
2023-03-28T06:52:52.416Z,-0.50
2023-03-28T06:55:19.451Z,-0.57
2023-03-28T06:57:46.279Z,-0.55
2023-03-28T07:00:13.747Z,-0.48
2023-03-28T07:02:40.787Z,-0.38
2023-03-28T07:05:08.209Z,-0.28
2023-03-28T07:07:35.093Z,-0.39
2023-03-28T07:10:01.958Z,-0.29
2023-03-28T07:12:28.828Z,-0.16
2023-03-28T07:14:55.734Z,-0.05
2023-03-28T07:17:22.624Z,0.09
2023-03-28T07:19:51.334Z,0.18
2023-03-28T07:22:18.373Z,0.37
2023-03-28T07:24:45.376Z,0.82
2023-03-28T07:27:16.272Z,0.69
2023-03-28T07:29:44.062Z,0.95
2023-03-28T07:32:11.465Z,1.04
2023-03-28T07:34:38.363Z,1.08
2023-03-28T07:37:05.575Z,1.16
2023-03-28T07:39:32.751Z,1.27
2023-03-28T07:41:59.585Z,1.59
2023-03-28T07:44:26.492Z,1.72
2023-03-28T07:46:53.323Z,1.76
2023-03-28T07:49:21.295Z,1.99
2023-03-28T07:51:48.321Z,2.15
2023-03-28T07:54:17.955Z,2.15
2023-03-28T07:56:48.973Z,2.11
2023-03-28T07:59:16.387Z,2.15
2023-03-28T08:01:45.334Z,2.35
2023-03-28T08:04:13.697Z,2.36
2023-03-28T08:06:41.270Z,2.56
2023-03-28T08:09:11.447Z,2.81
2023-03-28T08:11:40.569Z,3.10
2023-03-28T08:14:11.621Z,3.32
2023-03-28T08:16:39.465Z,3.46
2023-03-28T08:19:11.131Z,3.45
2023-03-28T08:21:38.604Z,3.63
2023-03-28T08:24:07.944Z,3.40
2023-03-28T08:26:35.061Z,3.36
2023-03-28T08:29:02.483Z,3.44
2023-03-28T08:31:29.683Z,3.63
2023-03-28T08:33:58.064Z,3.79
2023-03-28T08:36:27.316Z,3.83
2023-03-28T08:39:00.571Z,4.07
2023-03-28T08:42:00.779Z,4.18
2023-03-28T08:45:09.044Z,4.10
2023-03-28T08:48:08.483Z,4.17
2023-03-28T08:50:41.135Z,4.24
2023-03-28T08:53:22.203Z,4.52
2023-03-28T08:55:51.148Z,4.71
2023-03-28T08:58:23.514Z,4.63
2023-03-28T09:00:52.293Z,4.77
2023-03-28T09:03:22.866Z,4.72
2023-03-28T09:06:05.839Z,4.61
2023-03-28T09:08:53.256Z,4.69
2023-03-28T09:11:46.314Z,4.88
2023-03-28T09:15:14.465Z,5.22
2023-03-28T09:17:52.927Z,5.34
2023-03-28T09:20:56.417Z,5.36
2023-03-28T09:23:59.745Z,5.43
2023-03-28T09:27:02.008Z,5.10
2023-03-28T09:29:32.561Z,5.09
2023-03-28T09:32:13.740Z,5.11
2023-03-28T09:34:49.384Z,5.09
2023-03-28T09:37:36.164Z,4.91
2023-03-28T09:40:24.478Z,5.00
2023-03-28T09:43:28.703Z,4.94
2023-03-28T09:46:01.326Z,5.13
2023-03-28T09:48:34.828Z,5.31
2023-03-28T09:51:03.349Z,5.62
2023-03-28T09:53:36.578Z,5.69
2023-03-28T09:56:29.058Z,6.03
2023-03-28T09:59:02.752Z,6.22
2023-03-28T10:01:47.172Z,6.21
2023-03-28T10:04:32.957Z,6.33
2023-03-28T10:07:08.979Z,6.09
2023-03-28T10:09:48.652Z,6.05
2023-03-28T10:12:24.964Z,6.17
2023-03-28T10:14:52.194Z,6.52
2023-03-28T10:17:36.679Z,6.46
2023-03-28T10:20:21.994Z,6.21
2023-03-28T10:22:52.986Z,6.36
2023-03-28T10:25:38.867Z,6.47
2023-03-28T10:28:08.951Z,6.49
2023-03-28T10:30:37.727Z,6.42
2023-03-28T10:33:17.665Z,6.53
2023-03-28T10:35:59.843Z,6.42
2023-03-28T10:38:43.602Z,6.52
2023-03-28T10:41:20.406Z,6.77
2023-03-28T10:43:47.427Z,7.17
2023-03-28T10:46:19.295Z,7.44
2023-03-28T10:48:56.652Z,7.68
2023-03-28T10:51:26.455Z,7.50
2023-03-28T10:54:19.644Z,7.41
2023-03-28T10:57:07.899Z,7.38
2023-03-28T10:59:40.589Z,7.54
2023-03-28T11:02:07.451Z,7.56
2023-03-28T11:05:02.224Z,7.50
2023-03-28T11:07:39.637Z,7.64
2023-03-28T11:10:31.108Z,7.81
2023-03-28T11:13:22.539Z,7.56
2023-03-28T11:16:27.514Z,7.66
2023-03-28T11:19:19.086Z,7.85
2023-03-28T11:22:25.328Z,8.04
2023-03-28T11:25:05.795Z,8.40
2023-03-28T11:28:01.486Z,8.48
2023-03-28T11:30:34.388Z,8.38
2023-03-28T11:33:42.154Z,8.47
2023-03-28T11:36:19.250Z,8.41
2023-03-28T11:39:43.660Z,8.72
2023-03-28T11:42:20.926Z,8.86
2023-03-28T11:45:03.143Z,8.95
2023-03-28T11:47:45.641Z,9.12
2023-03-28T11:50:23.038Z,9.10
2023-03-28T11:53:02.456Z,9.31
2023-03-28T11:55:39.944Z,9.49
2023-03-28T11:58:36.483Z,9.66
2023-03-28T12:01:15.861Z,9.63
2023-03-28T12:04:11.712Z,9.98
2023-03-28T12:07:02.194Z,10.22
2023-03-28T12:10:01.182Z,10.32
2023-03-28T12:12:36.179Z,10.31
2023-03-28T12:15:22.056Z,10.06
2023-03-28T12:18:01.096Z,9.55
2023-03-28T12:20:56.378Z,9.14
2023-03-28T12:24:06.389Z,9.27
2023-03-28T12:27:01.158Z,9.66
2023-03-28T12:29:49.181Z,9.86
2023-03-28T12:32:24.331Z,9.70
2023-03-28T12:35:03.076Z,9.85
2023-03-28T12:37:41.560Z,9.83
2023-03-28T12:40:25.246Z,10.01
2023-03-28T12:42:56.694Z,10.14
2023-03-28T12:45:31.610Z,10.50
2023-03-28T12:48:08.553Z,10.68
2023-03-28T12:50:53.026Z,10.59
2023-03-28T12:53:22.024Z,10.72
2023-03-28T12:55:51.828Z,11.00
2023-03-28T12:58:34.050Z,10.99
2023-03-28T13:01:09.910Z,10.86
2023-03-28T13:04:01.741Z,10.82
2023-03-28T13:07:03.963Z,10.66
2023-03-28T13:10:01.130Z,10.82
2023-03-28T13:12:44.865Z,11.12
2023-03-28T13:15:14.523Z,11.28
2023-03-28T13:18:20.501Z,11.48
2023-03-28T13:20:51.704Z,11.70
2023-03-28T13:23:47.157Z,12.02
2023-03-28T13:26:14.288Z,11.99
2023-03-28T13:28:51.856Z,12.11
2023-03-28T13:31:24.716Z,12.29
2023-03-28T13:34:01.065Z,12.28
2023-03-28T13:36:32.597Z,12.42
2023-03-28T13:39:20.621Z,12.44
2023-03-28T13:41:47.411Z,12.45
2023-03-28T13:44:20.158Z,12.48
2023-03-28T13:46:52.586Z,12.45
2023-03-28T13:49:41.431Z,12.46
2023-03-28T13:52:22.248Z,12.41
2023-03-28T13:54:55.812Z,12.27
2023-03-28T13:57:27.408Z,12.27
2023-03-28T14:00:06.096Z,12.61
2023-03-28T14:02:43.838Z,12.83
2023-03-28T14:05:20.775Z,12.85
2023-03-28T14:07:48.493Z,13.12
2023-03-28T14:10:35.412Z,13.48
2023-03-28T14:13:11.414Z,13.67
2023-03-28T14:15:40.779Z,13.79
2023-03-28T14:18:34.540Z,13.93
2023-03-28T14:21:02.131Z,13.83
2023-03-28T14:23:31.836Z,14.02
2023-03-28T14:26:02.648Z,13.95
2023-03-28T14:28:30.934Z,14.22
2023-03-28T14:30:58.629Z,14.42
2023-03-28T14:33:25.964Z,14.65
2023-03-28T14:36:03.034Z,14.52
2023-03-28T14:38:39.787Z,14.40
2023-03-28T14:41:19.415Z,14.20
2023-03-28T14:43:58.059Z,14.16
2023-03-28T14:46:29.304Z,13.89
2023-03-28T14:49:01.407Z,13.94
2023-03-28T14:51:28.493Z,14.13
2023-03-28T14:53:56.429Z,14.07
2023-03-28T14:56:27.615Z,14.02
2023-03-28T14:58:59.651Z,14.23
2023-03-28T15:01:27.532Z,13.97
2023-03-28T15:04:00.451Z,13.92
2023-03-28T15:06:29.553Z,13.87
2023-03-28T15:09:00.144Z,13.76
2023-03-28T15:11:38.127Z,13.81
2023-03-28T15:14:12.750Z,13.76
2023-03-28T15:16:42.959Z,13.69
2023-03-28T15:19:32.280Z,13.68
2023-03-28T15:22:07.477Z,13.73
2023-03-28T15:24:36.928Z,13.80
2023-03-28T15:27:04.665Z,13.85
2023-03-28T15:29:36.548Z,13.87
2023-03-28T15:32:14.181Z,13.75
2023-03-28T15:35:31.958Z,13.61
2023-03-28T15:38:22.383Z,13.25
2023-03-28T15:40:52.806Z,13.23
2023-03-28T15:43:41.821Z,12.66
2023-03-28T15:46:14.328Z,12.16
2023-03-28T15:48:43.302Z,11.91
2023-03-28T15:51:18.540Z,11.91
2023-03-28T15:53:47.057Z,11.77
2023-03-28T15:56:27.017Z,11.45
2023-03-28T15:59:01.100Z,11.25
2023-03-28T16:01:33.304Z,11.08
2023-03-28T16:04:31.280Z,11.07
2023-03-28T16:07:12.469Z,11.06
2023-03-28T16:09:43.490Z,11.05
2023-03-28T16:12:15.700Z,10.84
2023-03-28T16:14:55.534Z,10.65
2023-03-28T16:17:29.153Z,10.60
2023-03-28T16:19:57.359Z,10.40
2023-03-28T16:22:24.993Z,10.22
2023-03-28T16:24:54.324Z,9.99
2023-03-28T16:27:22.335Z,9.88
2023-03-28T16:29:49.522Z,9.80
2023-03-28T16:32:17.076Z,9.61
2023-03-28T16:34:44.208Z,9.54
2023-03-28T16:37:11.682Z,9.41
2023-03-28T16:39:39.131Z,9.31
2023-03-28T16:42:06.798Z,9.06
2023-03-28T16:44:33.940Z,8.96
2023-03-28T16:47:01.832Z,8.89
2023-03-28T16:49:29.617Z,8.90
2023-03-28T16:51:56.888Z,8.84
2023-03-28T16:54:24.675Z,8.79
2023-03-28T16:56:51.542Z,8.78
2023-03-28T16:59:18.670Z,8.75
2023-03-28T17:01:46.587Z,8.68
2023-03-28T17:04:13.519Z,8.49
2023-03-28T17:06:40.527Z,8.35
2023-03-28T17:09:07.381Z,8.21
2023-03-28T17:11:34.975Z,8.23
2023-03-28T17:14:02.044Z,8.21
2023-03-28T17:16:29.097Z,8.22
2023-03-28T17:18:56.044Z,8.08
2023-03-28T17:21:22.861Z,8.02
2023-03-28T17:23:51.198Z,7.92
2023-03-28T17:26:18.928Z,7.99
2023-03-28T17:28:46.132Z,7.88
2023-03-28T17:31:18.813Z,7.80
2023-03-28T17:33:47.388Z,7.78
2023-03-28T17:36:21.773Z,7.67
2023-03-28T17:38:51.786Z,7.66
2023-03-28T17:41:20.062Z,7.62
2023-03-28T17:43:46.963Z,7.42
2023-03-28T17:46:13.793Z,7.29
2023-03-28T17:48:41.457Z,7.32
2023-03-28T17:51:10.638Z,7.32
2023-03-28T17:53:41.251Z,7.28
2023-03-28T17:56:09.138Z,7.21
2023-03-28T17:58:37.829Z,7.12
2023-03-28T18:01:09.890Z,7.09
2023-03-28T18:03:37.552Z,7.05
2023-03-28T18:06:05.151Z,6.94
2023-03-28T18:08:32.022Z,6.94
2023-03-28T18:11:08.079Z,6.98
2023-03-28T18:13:37.289Z,6.87
2023-03-28T18:16:06.859Z,6.79
2023-03-28T18:18:34.252Z,6.74
2023-03-28T18:21:01.212Z,6.60
2023-03-28T18:23:28.084Z,6.45
2023-03-28T18:25:54.931Z,6.42
2023-03-28T18:28:23.568Z,6.54
2023-03-28T18:30:53.993Z,6.38
2023-03-28T18:33:23.085Z,6.48
2023-03-28T18:35:50.186Z,6.31
2023-03-28T18:38:17.920Z,6.12
2023-03-28T18:40:44.761Z,6.26
2023-03-28T18:43:12.203Z,6.20
2023-03-28T18:45:39.109Z,6.20
2023-03-28T18:48:06.398Z,6.20
2023-03-28T18:50:33.313Z,6.18
2023-03-28T18:53:00.151Z,6.13
2023-03-28T18:55:27.074Z,6.09
2023-03-28T18:57:53.884Z,6.08
2023-03-28T19:00:20.874Z,6.03
2023-03-28T19:02:49.499Z,6.12
2023-03-28T19:05:17.726Z,6.06
2023-03-28T19:07:45.459Z,5.99
2023-03-28T19:10:13.594Z,5.76
2023-03-28T19:12:41.877Z,5.98
2023-03-28T19:15:11.234Z,6.07
2023-03-28T19:17:40.371Z,6.01
2023-03-28T19:20:13.139Z,5.88
2023-03-28T19:22:40.847Z,5.75
2023-03-28T19:25:09.484Z,5.69
2023-03-28T19:27:37.963Z,5.53
2023-03-28T19:30:07.396Z,5.48
2023-03-28T19:32:34.406Z,5.53
2023-03-28T19:35:01.254Z,5.57
2023-03-28T19:37:28.094Z,5.65
2023-03-28T19:39:58.757Z,5.54
2023-03-28T19:42:25.630Z,5.57
2023-03-28T19:44:52.603Z,5.56
2023-03-28T19:47:19.803Z,5.58
2023-03-28T19:49:46.773Z,5.68
2023-03-28T19:52:13.625Z,5.61
2023-03-28T19:54:40.516Z,5.50
2023-03-28T19:57:08.440Z,5.53
2023-03-28T19:59:35.606Z,5.51
2023-03-28T20:02:02.530Z,5.47
2023-03-28T20:04:29.549Z,5.51
2023-03-28T20:06:56.496Z,5.46
2023-03-28T20:09:24.353Z,5.36
2023-03-28T20:11:51.470Z,5.29
2023-03-28T20:14:21.319Z,5.35
2023-03-28T20:16:48.851Z,5.40
2023-03-28T20:19:18.222Z,5.46
2023-03-28T20:21:45.272Z,5.40
2023-03-28T20:24:12.189Z,5.38
2023-03-28T20:26:40.039Z,5.34
2023-03-28T20:29:10.424Z,5.30
2023-03-28T20:31:37.453Z,5.23
2023-03-28T20:34:04.386Z,5.32
2023-03-28T20:36:33.012Z,5.30
2023-03-28T20:39:04.013Z,5.30
2023-03-28T20:41:30.881Z,5.23
2023-03-28T20:44:03.657Z,5.18
2023-03-28T20:46:34.681Z,5.23
2023-03-28T20:49:01.650Z,5.23
2023-03-28T20:51:29.501Z,5.17
2023-03-28T20:53:59.876Z,5.26
2023-03-28T20:56:30.247Z,5.18
2023-03-28T20:58:59.074Z,5.14
2023-03-28T21:01:30.390Z,5.13
2023-03-28T21:04:00.274Z,4.98
2023-03-28T21:06:29.894Z,5.09
2023-03-28T21:09:00.804Z,5.03
2023-03-28T21:11:34.234Z,5.07
2023-03-28T21:14:02.101Z,5.07
2023-03-28T21:16:31.272Z,5.08
2023-03-28T21:18:59.896Z,5.17
2023-03-28T21:21:29.985Z,5.07
2023-03-28T21:23:57.493Z,4.96
2023-03-28T21:26:24.928Z,5.01
2023-03-28T21:28:53.043Z,5.02
2023-03-28T21:31:26.426Z,4.97
2023-03-28T21:33:57.463Z,4.98
2023-03-28T21:36:26.902Z,5.02
2023-03-28T21:38:54.372Z,5.06
2023-03-28T21:41:22.643Z,4.96
2023-03-28T21:43:50.390Z,4.96
2023-03-28T21:46:18.841Z,5.02
2023-03-28T21:48:48.287Z,4.98
2023-03-28T21:51:16.674Z,5.00
2023-03-28T21:53:43.560Z,4.97
2023-03-28T21:56:12.900Z,5.06
2023-03-28T21:58:39.910Z,4.98
2023-03-28T22:01:06.955Z,4.97
2023-03-28T22:03:37.478Z,5.00
2023-03-28T22:06:04.925Z,5.08
2023-03-28T22:08:31.821Z,5.06
2023-03-28T22:11:02.469Z,5.12
2023-03-28T22:13:30.507Z,5.14
2023-03-28T22:16:00.216Z,5.20
2023-03-28T22:18:28.175Z,5.24
2023-03-28T22:20:55.681Z,5.18
2023-03-28T22:23:24.229Z,5.14
2023-03-28T22:25:53.165Z,5.11
2023-03-28T22:28:24.827Z,5.05
2023-03-28T22:30:55.742Z,5.08
2023-03-28T22:33:23.691Z,5.08
2023-03-28T22:35:50.653Z,5.09
2023-03-28T22:38:19.501Z,5.11
2023-03-28T22:40:58.712Z,5.10
2023-03-28T22:43:25.692Z,5.23
2023-03-28T22:45:52.565Z,5.17
2023-03-28T22:48:20.524Z,5.20
2023-03-28T22:50:47.482Z,5.13
2023-03-28T22:53:15.162Z,5.13
2023-03-28T22:55:42.713Z,5.16
2023-03-28T22:58:09.670Z,5.21
2023-03-28T23:00:36.575Z,5.23
2023-03-28T23:03:04.102Z,5.23
2023-03-28T23:05:31.287Z,5.19
2023-03-28T23:08:00.208Z,5.22
2023-03-28T23:10:27.532Z,5.22
2023-03-28T23:12:54.400Z,5.24
2023-03-28T23:15:21.303Z,5.23
2023-03-28T23:17:48.613Z,5.26
2023-03-28T23:20:16.047Z,5.06
2023-03-28T23:22:45.922Z,5.14
2023-03-28T23:25:15.717Z,5.10
2023-03-28T23:27:43.378Z,4.96
2023-03-28T23:30:12.319Z,5.07
2023-03-28T23:32:39.552Z,5.06
2023-03-28T23:35:09.696Z,5.09
2023-03-28T23:37:38.562Z,5.09
2023-03-28T23:40:10.727Z,5.06
2023-03-28T23:42:37.826Z,4.93
2023-03-28T23:45:05.165Z,4.84
2023-03-28T23:47:32.013Z,4.77
2023-03-28T23:49:59.563Z,4.85
2023-03-28T23:52:26.481Z,4.83
2023-03-28T23:54:53.356Z,4.82
2023-03-28T23:57:20.223Z,4.76
2023-03-28T23:59:47.154Z,4.86
